KDSV/DSV METAR and TAF weather

Enter ICAO airport designator
Station Type Date Time Source
KDSV METAR 2018/07/21 12:54 UTC NOAA

KDSV 211254Z AUTO 16011G20KT 10SM FEW030 22/14 A2999 RMK AO2 SLP159 T02220144


Station Type Date Time Source
KDSV Decoded METAR 2018/07/21 12:54 UTC NOAA

DANSVILLE MUNICIPAL AIRPORT, NY, United States (KDSV) 42-34N 077-43W 198M
Jul 21, 2018 - 08:54 AM EDT / 2018.07.21 1254 UTC
Wind: from the SSE (160 degrees) at 13 MPH (11 KT) gusting to 23 MPH (20 KT):0
Visibility: 10 mile(s):0
Sky conditions: mostly clear
Temperature: 72.0 F (22.2 C)
Dew Point: 57.9 F (14.4 C)
Relative Humidity: 61%
Pressure (altimeter): 29.99 in. Hg (1015 hPa)
ob: KDSV 211254Z AUTO 16011G20KT 10SM FEW030 22/14 A2999 RMK AO2 SLP159 T02220144
cycle: 13

Station Type Date Time Source
KDSV TAF UTC NOAA

Error!


Example: see airport list